GLD1974 SVJC-SVCR
Flight info
| Callsign | GLD1974 |
|---|---|
| Flight time | 0h 16m |
| Altitude | 5000 |
| Route | KOPTU DCT OBKOD DCT CRO |
| Aircraft | C172/L-SFG/C |
Departure
| Time | 2026-05-04 18:04 |
|---|---|
| Airport | Josefa Camejo International Airport (SVJC) |
Arrival
| Time | 2026-05-04 18:21 |
|---|---|
| Airport | José Leonardo Chirinos Airport (SVCR) |
| Time | Latitude | Longitude | Altitude | Speed | Heading |
|---|---|---|---|---|---|
| 2026-05-04 17:59 | 11.77867 | -70.14761 | 75 ft | 6 kts | 24° |
| 2026-05-04 17:59 | 11.77879 | -70.14783 | 74 ft | 6 kts | 263° |
| 2026-05-04 17:59 | 11.77870 | -70.14904 | 79 ft | 10 kts | 273° |
| 2026-05-04 18:00 | 11.77894 | -70.14978 | 80 ft | 12 kts | 294° |
| 2026-05-04 18:00 | 11.77932 | -70.15061 | 79 ft | 14 kts | 295° |
| 2026-05-04 18:00 | 11.77975 | -70.15156 | 80 ft | 16 kts | 295° |
| 2026-05-04 18:00 | 11.78022 | -70.15260 | 79 ft | 17 kts | 293° |
| 2026-05-04 18:01 | 11.78076 | -70.15313 | 78 ft | 9 kts | 86° |
| 2026-05-04 18:01 | 11.78083 | -70.15206 | 78 ft | 32 kts | 86° |
| 2026-05-04 18:01 | 11.78115 | -70.14875 | 103 ft | 56 kts | 84° |
| 2026-05-04 18:02 | 11.78200 | -70.13882 | 191 ft | 82 kts | 85° |
| 2026-05-04 18:02 | 11.78176 | -70.13279 | 240 ft | 90 kts | 111° |
| 2026-05-04 18:02 | 11.77798 | -70.12743 | 300 ft | 97 kts | 125° |
| 2026-05-04 18:02 | 11.77355 | -70.12206 | 361 ft | 100 kts | 125° |
| 2026-05-04 18:03 | 11.76917 | -70.11633 | 415 ft | 104 kts | 126° |
| 2026-05-04 18:03 | 11.76481 | -70.11026 | 456 ft | 106 kts | 124° |
| 2026-05-04 18:03 | 11.76010 | -70.10456 | 503 ft | 103 kts | 126° |
| 2026-05-04 18:03 | 11.75531 | -70.09925 | 553 ft | 101 kts | 127° |
| 2026-05-04 18:04 | 11.74925 | -70.09517 | 609 ft | 106 kts | 136° |
| 2026-05-04 18:04 | 11.74311 | -70.09102 | 655 ft | 107 kts | 134° |
| 2026-05-04 18:04 | 11.73055 | -70.08233 | 763 ft | 112 kts | 135° |
| 2026-05-04 18:05 | 11.72381 | -70.07810 | 811 ft | 115 kts | 135° |
| 2026-05-04 18:05 | 11.71720 | -70.07373 | 854 ft | 112 kts | 136° |
| 2026-05-04 18:05 | 11.71087 | -70.06911 | 900 ft | 112 kts | 134° |
| 2026-05-04 18:05 | 11.70454 | -70.06490 | 943 ft | 108 kts | 135° |
| 2026-05-04 18:06 | 11.69236 | -70.05749 | 1017 ft | 97 kts | 137° |
| 2026-05-04 18:06 | 11.68684 | -70.05340 | 1054 ft | 99 kts | 136° |
| 2026-05-04 18:06 | 11.68129 | -70.04913 | 1121 ft | 102 kts | 132° |
| 2026-05-04 18:07 | 11.67502 | -70.04518 | 1168 ft | 109 kts | 134° |
| 2026-05-04 18:07 | 11.66846 | -70.04129 | 1218 ft | 112 kts | 136° |
| 2026-05-04 18:07 | 11.66186 | -70.03696 | 1268 ft | 114 kts | 134° |
| 2026-05-04 18:07 | 11.65513 | -70.03264 | 1322 ft | 115 kts | 136° |
| 2026-05-04 18:08 | 11.64853 | -70.02804 | 1378 ft | 116 kts | 135° |
| 2026-05-04 18:08 | 11.64200 | -70.02304 | 1417 ft | 118 kts | 135° |
| 2026-05-04 18:08 | 11.63558 | -70.01788 | 1446 ft | 118 kts | 135° |
| 2026-05-04 18:08 | 11.62906 | -70.01263 | 1448 ft | 120 kts | 133° |
| 2026-05-04 18:09 | 11.61549 | -70.00270 | 1452 ft | 122 kts | 136° |
| 2026-05-04 18:09 | 11.60154 | -69.99278 | 1452 ft | 122 kts | 133° |
| 2026-05-04 18:10 | 11.59458 | -69.98792 | 1452 ft | 120 kts | 135° |
| 2026-05-04 18:10 | 11.58785 | -69.98316 | 1453 ft | 119 kts | 134° |
| 2026-05-04 18:10 | 11.58095 | -69.97861 | 1453 ft | 117 kts | 134° |
| 2026-05-04 18:10 | 11.57410 | -69.97411 | 1452 ft | 117 kts | 134° |
| 2026-05-04 18:11 | 11.56729 | -69.96962 | 1451 ft | 117 kts | 134° |
| 2026-05-04 18:11 | 11.56040 | -69.96520 | 1449 ft | 117 kts | 135° |
| 2026-05-04 18:11 | 11.55369 | -69.96069 | 1447 ft | 114 kts | 134° |
| 2026-05-04 18:11 | 11.54705 | -69.95632 | 1451 ft | 113 kts | 135° |
| 2026-05-04 18:12 | 11.54105 | -69.95155 | 1448 ft | 109 kts | 127° |
| 2026-05-04 18:12 | 11.53541 | -69.94628 | 1448 ft | 111 kts | 127° |
| 2026-05-04 18:12 | 11.52960 | -69.94104 | 1449 ft | 111 kts | 128° |
| 2026-05-04 18:12 | 11.52380 | -69.93567 | 1450 ft | 114 kts | 128° |
| 2026-05-04 18:13 | 11.51797 | -69.93003 | 1459 ft | 117 kts | 128° |
| 2026-05-04 18:13 | 11.51204 | -69.92433 | 1460 ft | 118 kts | 128° |
| 2026-05-04 18:13 | 11.50026 | -69.91290 | 1444 ft | 118 kts | 127° |
| 2026-05-04 18:14 | 11.49403 | -69.90717 | 1343 ft | 123 kts | 127° |
| 2026-05-04 18:14 | 11.48776 | -69.90125 | 1324 ft | 123 kts | 128° |
| 2026-05-04 18:14 | 11.48184 | -69.89513 | 1302 ft | 121 kts | 121° |
| 2026-05-04 18:15 | 11.47234 | -69.88177 | 1247 ft | 112 kts | 115° |
| 2026-05-04 18:15 | 11.46330 | -69.86858 | 1201 ft | 117 kts | 115° |
| 2026-05-04 18:15 | 11.45879 | -69.86166 | 1185 ft | 118 kts | 118° |
| 2026-05-04 18:16 | 11.45459 | -69.85455 | 1167 ft | 115 kts | 116° |
| 2026-05-04 18:16 | 11.45086 | -69.84766 | 1141 ft | 110 kts | 115° |
| 2026-05-04 18:16 | 11.44718 | -69.84098 | 1117 ft | 106 kts | 116° |
| 2026-05-04 18:17 | 11.43978 | -69.82811 | 1067 ft | 106 kts | 115° |
| 2026-05-04 18:17 | 11.43598 | -69.82169 | 1044 ft | 107 kts | 115° |
| 2026-05-04 18:17 | 11.42980 | -69.80804 | 1000 ft | 105 kts | 107° |
| 2026-05-04 18:18 | 11.42763 | -69.80095 | 981 ft | 104 kts | 103° |
| 2026-05-04 18:18 | 11.42614 | -69.79624 | 962 ft | 108 kts | 104° |
| 2026-05-04 18:18 | 11.42333 | -69.78609 | 931 ft | 118 kts | 103° |
| 2026-05-04 18:18 | 11.42118 | -69.77784 | 915 ft | 117 kts | 103° |
| 2026-05-04 18:19 | 11.41762 | -69.76617 | 856 ft | 105 kts | 102° |
| 2026-05-04 18:19 | 11.41529 | -69.75903 | 841 ft | 109 kts | 103° |
| 2026-05-04 18:19 | 11.41360 | -69.75150 | 819 ft | 108 kts | 87° |
| 2026-05-04 18:20 | 11.41533 | -69.74395 | 800 ft | 109 kts | 78° |
| 2026-05-04 18:20 | 11.41332 | -69.73664 | 773 ft | 115 kts | 124° |
| 2026-05-04 18:20 | 11.40815 | -69.73038 | 756 ft | 119 kts | 124° |
| 2026-05-04 18:20 | 11.40563 | -69.72265 | 731 ft | 114 kts | 84° |
| 2026-05-04 18:21 | 11.40748 | -69.71607 | 691 ft | 83 kts | 74° |
| 2026-05-04 18:21 | 11.40840 | -69.71153 | 762 ft | 48 kts | 78° |
| 2026-05-04 18:21 | 11.40908 | -69.70835 | 507 ft | 44 kts | 72° |
| 2026-05-04 18:21 | 11.41015 | -69.70480 | 350 ft | 60 kts | 73° |
| 2026-05-04 18:22 | 11.41108 | -69.70058 | 249 ft | 60 kts | 77° |
| 2026-05-04 18:22 | 11.41193 | -69.69621 | 162 ft | 65 kts | 76° |
| 2026-05-04 18:22 | 11.41279 | -69.69181 | 87 ft | 60 kts | 77° |
| 2026-05-04 18:22 | 11.41352 | -69.68798 | 52 ft | 49 kts | 76° |
| 2026-05-04 18:23 | 11.41409 | -69.68518 | 50 ft | 31 kts | 79° |
| 2026-05-04 18:23 | 11.41440 | -69.68355 | 51 ft | 17 kts | 78° |
| 2026-05-04 18:23 | 11.41458 | -69.68268 | 52 ft | 10 kts | 78° |
| 2026-05-04 18:23 | 11.41470 | -69.68203 | 52 ft | 10 kts | 77° |
| 2026-05-04 18:24 | 11.41486 | -69.68123 | 52 ft | 10 kts | 79° |
| 2026-05-04 18:24 | 11.41497 | -69.68064 | 52 ft | 8 kts | 78° |
| 2026-05-04 18:24 | 11.41479 | -69.68019 | 52 ft | 8 kts | 158° |
| 2026-05-04 18:24 | 11.41427 | -69.68007 | 52 ft | 4 kts | 166° |
| 2026-05-04 18:25 | 11.41419 | -69.68005 | 52 ft | 0 kts | 161° |